createdAt,value
2018-03-08T00:00:19.110Z,29.7
2018-03-08T00:02:18.891Z,27.8
2018-03-08T00:04:18.681Z,29.8
2018-03-08T00:06:18.768Z,30
2018-03-08T00:08:18.516Z,29.4
2018-03-08T00:10:18.774Z,29.2
2018-03-08T00:12:18.530Z,30.3
2018-03-08T00:14:19.280Z,28.4
2018-03-08T00:16:18.823Z,28
2018-03-08T00:18:18.633Z,27.9
2018-03-08T00:20:19.430Z,27.4
2018-03-08T00:22:19.197Z,27.9
2018-03-08T00:24:18.984Z,31.3
2018-03-08T00:26:18.588Z,28.8
2018-03-08T00:28:19.342Z,30.8
2018-03-08T00:30:19.144Z,28.1
2018-03-08T00:32:18.909Z,29
2018-03-08T00:34:18.662Z,30.2
2018-03-08T00:36:19.196Z,29.7
2018-03-08T00:38:18.950Z,27.7
2018-03-08T00:40:19.207Z,28.4
2018-03-08T00:42:18.970Z,26.6
2018-03-08T00:44:18.721Z,30.3
2018-03-08T00:46:19.250Z,27.7
2018-03-08T00:48:19.006Z,26.9
2018-03-08T00:50:18.742Z,28.7
2018-03-08T00:52:18.504Z,28.5
2018-03-08T00:54:19.270Z,30.5
2018-03-08T00:56:19.149Z,28.6
2018-03-08T00:58:18.949Z,26.6
2018-03-08T01:00:18.720Z,31.6
2018-03-08T01:02:18.493Z,28.5
2018-03-08T01:04:19.240Z,28
2018-03-08T01:06:19.314Z,29.4
2018-03-08T01:08:19.061Z,30.8
2018-03-08T01:10:19.281Z,26.6
2018-03-08T01:12:19.023Z,26.9
2018-03-08T01:14:18.789Z,28.1
2018-03-08T01:16:19.273Z,29.4
2018-03-08T01:18:19.117Z,28.4
2018-03-08T01:20:18.882Z,29.2
2018-03-08T01:22:18.631Z,29.7
2018-03-08T01:24:19.391Z,29.5
2018-03-08T01:26:19.478Z,29.7
2018-03-08T01:28:19.245Z,29.6
2018-03-08T01:30:19.019Z,29.7
2018-03-08T01:32:19.142Z,29.5
2018-03-08T01:34:18.891Z,27.9
2018-03-08T01:36:19.438Z,26.3
2018-03-08T01:38:19.187Z,30
2018-03-08T01:40:19.559Z,30.7
2018-03-08T01:42:18.965Z,31
2018-03-08T01:44:18.736Z,27.5
2018-03-08T01:46:19.314Z,28.3
2018-03-08T01:48:19.109Z,29.6
2018-03-08T01:50:18.912Z,29.1
2018-03-08T01:52:18.697Z,27.9
2018-03-08T01:54:19.450Z,29.3
2018-03-08T01:56:18.980Z,29.6
2018-03-08T01:58:18.714Z,31.3
2018-03-08T02:00:19.460Z,31
2018-03-08T02:02:19.250Z,30.9
2018-03-08T02:04:19.036Z,30.1
2018-03-08T02:06:18.598Z,30.7
2018-03-08T02:08:19.342Z,27.4
2018-03-08T02:10:18.596Z,29.4
2018-03-08T02:12:19.379Z,29.3
2018-03-08T02:14:19.141Z,31.3
2018-03-08T02:16:19.400Z,29
2018-03-08T02:18:19.236Z,31
2018-03-08T02:20:19.011Z,30.3
2018-03-08T02:22:18.761Z,29.6
2018-03-08T02:24:18.520Z,31.3
2018-03-08T02:26:19.241Z,31.1
2018-03-08T02:28:19.028Z,28.4
2018-03-08T02:30:18.828Z,30.5
2018-03-08T02:32:18.606Z,27.9
2018-03-08T02:34:19.390Z,29.1
2018-03-08T02:36:18.500Z,30.2
2018-03-08T02:38:19.273Z,28.4
2018-03-08T02:40:18.536Z,29.4
2018-03-08T02:42:19.290Z,29.1
2018-03-08T02:44:19.083Z,29.7
2018-03-08T02:46:19.137Z,29.6
2018-03-08T02:48:18.906Z,28
2018-03-08T02:50:18.691Z,28.9
2018-03-08T02:52:19.245Z,31.7
2018-03-08T02:54:19.024Z,29.4
2018-03-08T02:56:19.120Z,29.7
2018-03-08T02:58:18.884Z,32.9
2018-03-08T03:00:18.624Z,29.9
2018-03-08T03:02:19.423Z,30.2
2018-03-08T03:04:19.202Z,30.3
2018-03-08T03:06:18.838Z,28.5
2018-03-08T03:08:18.597Z,28.9
2018-03-08T03:10:18.876Z,27.8
2018-03-08T03:12:18.633Z,29.5
2018-03-08T03:14:19.392Z,30.8
2018-03-08T03:16:19.441Z,29
2018-03-08T03:18:19.278Z,28.5
2018-03-08T03:20:19.103Z,29.1
2018-03-08T03:22:18.915Z,30.3
2018-03-08T03:24:18.759Z,27.2
2018-03-08T03:26:18.553Z,31.4
2018-03-08T03:28:19.410Z,29.4
2018-03-08T03:30:19.269Z,28.2
2018-03-08T03:32:19.122Z,29.5
2018-03-08T03:34:18.951Z,29
2018-03-08T03:36:18.640Z,28.6
2018-03-08T03:38:19.505Z,27.9
2018-03-08T03:40:18.854Z,30.3
2018-03-08T03:42:18.777Z,30.3
2018-03-08T03:44:18.634Z,28.1
2018-03-08T03:46:19.049Z,27.3
2018-03-08T03:48:18.921Z,28.9
2018-03-08T03:50:18.798Z,30.2
2018-03-08T03:52:18.665Z,26.4
2018-03-08T03:54:18.517Z,28.2
2018-03-08T03:56:19.272Z,29.7
2018-03-08T03:58:19.110Z,32
2018-03-08T04:00:18.994Z,28.8
2018-03-08T04:02:18.849Z,29.4
2018-03-08T04:04:18.718Z,31
2018-03-08T04:06:19.461Z,29.5
2018-03-08T04:08:19.322Z,28.5
2018-03-08T04:10:18.724Z,29.6
2018-03-08T04:12:18.591Z,30.7
2018-03-08T04:14:19.462Z,28.1
2018-03-08T04:16:19.214Z,26.4
2018-03-08T04:18:19.171Z,28
2018-03-08T04:20:19.025Z,29
2018-03-08T04:22:18.882Z,28.2
2018-03-08T04:24:18.751Z,29
2018-03-08T04:26:19.005Z,26.1
2018-03-08T04:28:18.865Z,29.4
2018-03-08T04:30:18.723Z,26.9
2018-03-08T04:32:18.588Z,28.6
2018-03-08T04:34:19.433Z,24.9
2018-03-08T04:36:18.738Z,26.5
2018-03-08T04:38:18.600Z,26.2
2018-03-08T04:40:19.039Z,25.4
2018-03-08T04:42:18.881Z,29.1
2018-03-08T04:44:18.725Z,27.9
2018-03-08T04:46:18.973Z,26
2018-03-08T04:48:18.838Z,27.8
2018-03-08T04:50:18.695Z,25.7
2018-03-08T04:52:18.534Z,25.5
2018-03-08T04:54:19.382Z,25
2018-03-08T04:56:18.881Z,26.2
2018-03-08T04:58:18.721Z,23
2018-03-08T05:00:18.577Z,23.1
2018-03-08T05:02:19.418Z,23.9
2018-03-08T05:04:19.284Z,21
2018-03-08T05:06:19.030Z,21.4
2018-03-08T05:08:18.885Z,20
2018-03-08T05:10:19.220Z,22
2018-03-08T05:12:19.086Z,23.8
2018-03-08T05:14:18.947Z,24.7
2018-03-08T05:16:19.269Z,25.3
2018-03-08T05:18:19.208Z,24.6
2018-03-08T05:20:19.076Z,22.8
2018-03-08T05:22:18.918Z,23.7
2018-03-08T05:24:18.785Z,22.1
2018-03-08T05:26:19.161Z,22.4
2018-03-08T05:28:19.013Z,22.8
2018-03-08T05:30:18.917Z,22.4
2018-03-08T05:32:18.798Z,21
2018-03-08T05:34:18.654Z,20.4
2018-03-08T05:36:18.915Z,20.1
2018-03-08T05:38:18.753Z,15.3
2018-03-08T05:40:19.079Z,11.9
2018-03-08T05:42:18.935Z,9.9
2018-03-08T05:44:18.807Z,10.8
2018-03-08T05:46:18.826Z,9.1
2018-03-08T05:48:18.683Z,9.1
2018-03-08T05:50:18.555Z,9.9
2018-03-08T05:52:19.414Z,9.9
2018-03-08T05:54:19.308Z,8.3
2018-03-08T05:56:19.051Z,9.3
2018-03-08T05:58:18.889Z,8.9
2018-03-08T06:00:18.763Z,9.2
2018-03-08T06:02:18.628Z,9.5
2018-03-08T06:04:19.503Z,7.7
2018-03-08T06:06:19.273Z,7.9
2018-03-08T06:08:19.132Z,6.8
2018-03-08T06:10:19.470Z,7.9
2018-03-08T06:12:19.343Z,9.5
2018-03-08T06:14:19.248Z,8.1
2018-03-08T06:16:18.614Z,7.4
2018-03-08T06:18:18.578Z,7.9
2018-03-08T06:20:19.446Z,7.7
2018-03-08T06:22:19.326Z,7.1
2018-03-08T06:24:19.208Z,7.9
2018-03-08T06:26:19.104Z,8.2
2018-03-08T06:28:18.982Z,8.3
2018-03-08T06:30:18.836Z,7.2
2018-03-08T06:32:18.726Z,7.6
2018-03-08T06:34:18.601Z,7.2
2018-03-08T06:36:19.377Z,7.7
2018-03-08T06:38:19.277Z,6.7
2018-03-08T06:40:18.679Z,5.9
2018-03-08T06:42:18.565Z,6.5
2018-03-08T06:44:19.421Z,6.3
2018-03-08T06:46:19.234Z,7.1
2018-03-08T06:48:19.098Z,4.9
2018-03-08T06:50:18.966Z,6.3
2018-03-08T06:52:18.803Z,6
2018-03-08T06:54:18.670Z,5.7
2018-03-08T06:56:19.403Z,5.6
2018-03-08T06:58:19.284Z,5.9
2018-03-08T07:00:19.152Z,5.7
2018-03-08T07:02:19.032Z,5.9
2018-03-08T07:04:18.899Z,4.8
2018-03-08T07:06:18.651Z,6.1
2018-03-08T07:08:19.520Z,5.6
2018-03-08T07:10:18.935Z,5.8
2018-03-08T07:12:18.825Z,6.2
2018-03-08T07:14:18.693Z,5.6
2018-03-08T07:16:18.540Z,5.6
2018-03-08T07:18:19.505Z,5.3
2018-03-08T07:20:19.404Z,6.5
2018-03-08T07:22:19.271Z,5.5
2018-03-08T07:24:19.127Z,6.1
2018-03-08T07:26:18.946Z,6.2
2018-03-08T07:28:18.810Z,5.7
2018-03-08T07:30:18.683Z,5.2
2018-03-08T07:32:18.552Z,6.1
2018-03-08T07:34:19.438Z,5.3
2018-03-08T07:36:19.205Z,5.7
2018-03-08T07:38:19.066Z,5.8
2018-03-08T07:40:19.399Z,6.3
2018-03-08T07:42:19.263Z,5.7
2018-03-08T07:44:19.122Z,6.8
2018-03-08T07:46:19.406Z,6
2018-03-08T07:48:19.265Z,6.2
2018-03-08T07:50:19.138Z,5.1
2018-03-08T07:52:19.001Z,6.6
2018-03-08T07:54:18.859Z,5.3
2018-03-08T07:56:18.816Z,6.2
2018-03-08T07:58:18.688Z,5.9
2018-03-08T08:00:18.684Z,6
2018-03-08T08:02:18.637Z,5
2018-03-08T08:04:19.511Z,5.1
2018-03-08T08:06:19.207Z,5
2018-03-08T08:08:19.074Z,5.6
2018-03-08T08:10:19.422Z,4.6
2018-03-08T08:12:19.265Z,5.5
2018-03-08T08:14:19.132Z,5.2
2018-03-08T08:16:18.872Z,5.5
2018-03-08T08:18:18.810Z,5.3
2018-03-08T08:20:18.798Z,6.1
2018-03-08T08:22:18.657Z,6
2018-03-08T08:24:19.512Z,5.1
2018-03-08T08:26:19.433Z,5.7
2018-03-08T08:28:19.317Z,4.9
2018-03-08T08:30:19.191Z,4.9
2018-03-08T08:32:19.051Z,5
2018-03-08T08:34:18.937Z,5.9
2018-03-08T08:36:19.188Z,4.6
2018-03-08T08:38:19.066Z,4.2
2018-03-08T08:40:19.411Z,4.8
2018-03-08T08:42:19.254Z,4.3
2018-03-08T08:44:19.128Z,4
2018-03-08T08:46:18.876Z,4.7
2018-03-08T08:48:18.728Z,4.1
2018-03-08T08:50:18.596Z,5.3
2018-03-08T08:52:19.472Z,4.5
2018-03-08T08:54:19.330Z,4
2018-03-08T08:56:19.125Z,4.1
2018-03-08T08:58:18.971Z,4
2018-03-08T09:00:18.906Z,4
2018-03-08T09:02:18.780Z,3.2
2018-03-08T09:04:18.621Z,4.1
2018-03-08T09:06:18.880Z,3.5
2018-03-08T09:08:18.758Z,3.7
2018-03-08T09:10:19.117Z,3.9
2018-03-08T09:12:19.005Z,3.9
2018-03-08T09:14:18.861Z,3.5
2018-03-08T09:16:18.669Z,3.4
2018-03-08T09:18:18.594Z,4
2018-03-08T09:20:19.427Z,3.9
2018-03-08T09:22:19.302Z,3.1
2018-03-08T09:24:19.178Z,3.1
2018-03-08T09:26:19.029Z,3.5
2018-03-08T09:28:18.896Z,3.1
2018-03-08T09:30:18.835Z,4
2018-03-08T09:32:18.677Z,4.2
2018-03-08T09:34:18.543Z,3.5
2018-03-08T09:36:18.812Z,3.5
2018-03-08T09:38:18.649Z,3.7
2018-03-08T09:40:18.993Z,4
2018-03-08T09:42:18.830Z,4
2018-03-08T09:44:18.690Z,4.2
2018-03-08T09:46:19.475Z,4.1
2018-03-08T09:48:19.342Z,4.2
2018-03-08T09:50:19.198Z,4.7
2018-03-08T09:52:19.080Z,4.8
2018-03-08T09:54:18.931Z,5.2
2018-03-08T09:56:18.669Z,5.1
2018-03-08T09:58:18.521Z,5
2018-03-08T10:00:19.388Z,5
2018-03-08T10:02:19.240Z,4.1
2018-03-08T10:04:19.100Z,5.7
2018-03-08T10:06:18.895Z,5.4
2018-03-08T10:08:18.768Z,5.1
2018-03-08T10:10:19.099Z,5.7
2018-03-08T10:12:18.969Z,5.5
2018-03-08T10:14:18.849Z,4.3
2018-03-08T10:16:19.230Z,5.7
2018-03-08T10:18:19.182Z,4.8
2018-03-08T10:20:19.041Z,6
2018-03-08T10:22:18.892Z,5.8
2018-03-08T10:24:18.738Z,4.8
2018-03-08T10:26:19.155Z,4.7
2018-03-08T10:28:19.078Z,6.6
2018-03-08T10:30:18.952Z,6.2
2018-03-08T10:32:18.835Z,5
2018-03-08T10:34:18.681Z,6.3
2018-03-08T10:36:19.511Z,6.3
2018-03-08T10:38:19.387Z,6.7
2018-03-08T10:40:18.842Z,7.4
2018-03-08T10:42:18.715Z,6.7
2018-03-08T10:44:18.571Z,6.4
2018-03-08T10:46:19.375Z,6.5
2018-03-08T10:48:19.221Z,7.5
2018-03-08T10:50:19.121Z,7.2
2018-03-08T10:52:19.022Z,7.3
2018-03-08T10:54:18.915Z,6.3
2018-03-08T10:56:19.159Z,6.6
2018-03-08T10:58:19.034Z,6.3
2018-03-08T11:00:18.925Z,7.3
2018-03-08T11:02:18.793Z,7.8
2018-03-08T11:04:18.668Z,6.7
2018-03-08T11:06:19.149Z,7.6
2018-03-08T11:08:19.041Z,6.9
2018-03-08T11:10:19.405Z,8.2
2018-03-08T11:12:19.273Z,7.9
2018-03-08T11:14:19.111Z,6.5
2018-03-08T11:16:18.990Z,6.5
2018-03-08T11:18:18.953Z,8.5
2018-03-08T11:20:18.822Z,7.6
2018-03-08T11:22:18.671Z,6.5
2018-03-08T11:24:18.536Z,6.7
2018-03-08T11:26:19.322Z,8.3
2018-03-08T11:28:19.182Z,7.9
2018-03-08T11:30:19.088Z,7.3
2018-03-08T11:32:18.927Z,8.2
2018-03-08T11:34:18.776Z,7.1
2018-03-08T11:36:19.073Z,7.5
2018-03-08T11:38:18.936Z,6.9
2018-03-08T11:40:19.264Z,7.6
2018-03-08T11:42:19.156Z,8.1
2018-03-08T11:44:19.014Z,8
2018-03-08T11:46:19.251Z,7.4
2018-03-08T11:48:19.118Z,7.2
2018-03-08T11:50:19.023Z,8.2
2018-03-08T11:52:18.901Z,6.9
2018-03-08T11:54:18.776Z,7.6
2018-03-08T11:56:18.615Z,8.6
2018-03-08T11:58:19.450Z,7.8
2018-03-08T12:00:19.348Z,8.4
2018-03-08T12:02:19.226Z,8.6
2018-03-08T12:04:19.095Z,8.6
2018-03-08T12:06:19.181Z,8.3
2018-03-08T12:08:19.063Z,8.6
2018-03-08T12:10:19.434Z,8.6
2018-03-08T12:12:19.312Z,7.5
2018-03-08T12:14:19.182Z,8.6
2018-03-08T12:16:19.486Z,7.8
2018-03-08T12:18:19.413Z,8.4
2018-03-08T12:20:19.286Z,8.2
2018-03-08T12:22:19.142Z,6.9
2018-03-08T12:24:19.032Z,8.7
2018-03-08T12:26:18.820Z,8.5
2018-03-08T12:28:18.694Z,8.4
2018-03-08T12:30:18.556Z,8.7
2018-03-08T12:32:19.423Z,8.1
2018-03-08T12:34:19.274Z,8.4
2018-03-08T12:36:19.034Z,7.6
2018-03-08T12:38:18.931Z,8.2
2018-03-08T12:40:19.308Z,8.4
2018-03-08T12:42:19.201Z,7.4
2018-03-08T12:44:19.093Z,9.1
2018-03-08T12:46:19.398Z,7.3
2018-03-08T12:48:19.312Z,8.5
2018-03-08T12:50:19.194Z,8.6
2018-03-08T12:52:19.064Z,9.4
2018-03-08T12:54:18.945Z,7.7
2018-03-08T12:56:18.869Z,7.1
2018-03-08T12:58:18.752Z,8.1
2018-03-08T13:00:18.679Z,7
2018-03-08T13:02:18.568Z,6.5
2018-03-08T13:04:19.508Z,8.1
2018-03-08T13:06:19.372Z,6.8
2018-03-08T13:08:19.243Z,6.3
2018-03-08T13:10:18.618Z,6
2018-03-08T13:12:19.334Z,6.8
2018-03-08T13:14:19.228Z,7.2
2018-03-08T13:16:19.074Z,6.2
2018-03-08T13:18:19.037Z,6.9
2018-03-08T13:20:18.947Z,6.5
2018-03-08T13:22:18.836Z,6.9
2018-03-08T13:24:18.710Z,6
2018-03-08T13:26:19.095Z,5.5
2018-03-08T13:28:18.947Z,5.9
2018-03-08T13:30:18.827Z,6.3
2018-03-08T13:32:18.702Z,5.7
2018-03-08T13:34:18.587Z,6.1
2018-03-08T13:36:19.348Z,6
2018-03-08T13:38:19.241Z,5.9
2018-03-08T13:40:18.660Z,5.1
2018-03-08T13:42:18.607Z,5.6
2018-03-08T13:44:19.477Z,4.7
2018-03-08T13:46:19.230Z,3.9
2018-03-08T13:48:19.088Z,4.9
2018-03-08T13:50:19.067Z,4.3
2018-03-08T13:52:18.992Z,4.3
2018-03-08T13:54:18.904Z,3.5
2018-03-08T13:56:19.168Z,3.1
2018-03-08T13:58:19.075Z,3.3
2018-03-08T14:00:19.038Z,2.9
2018-03-08T14:02:18.951Z,2.5
2018-03-08T14:04:18.849Z,2.7
2018-03-08T14:06:18.604Z,3
2018-03-08T14:08:18.556Z,2.3
2018-03-08T14:10:18.926Z,2.1
2018-03-08T14:12:18.844Z,2.6
2018-03-08T14:14:18.767Z,2
2018-03-08T14:16:19.517Z,1.9
2018-03-08T14:18:19.465Z,1.9
2018-03-08T14:20:19.377Z,1.9
2018-03-08T14:22:19.259Z,1.5
2018-03-08T14:24:19.154Z,1.5
2018-03-08T14:26:19.006Z,1.7
2018-03-08T14:28:18.879Z,1.8
2018-03-08T14:30:18.769Z,1.4
2018-03-08T14:32:18.674Z,1.4
2018-03-08T14:34:18.549Z,1.7
2018-03-08T14:36:18.887Z,1
2018-03-08T14:38:18.761Z,1.1
2018-03-08T14:40:19.205Z,1.4
2018-03-08T14:42:19.088Z,1.8
2018-03-08T14:44:18.974Z,1.2
2018-03-08T14:46:19.261Z,1
2018-03-08T14:48:19.146Z,1.1
2018-03-08T14:50:19.058Z,0.8
2018-03-08T14:52:18.947Z,1
2018-03-08T14:54:18.813Z,0.8
2018-03-08T14:56:19.075Z,0.7
2018-03-08T14:58:18.946Z,1
2018-03-08T15:00:18.844Z,0.8
2018-03-08T15:02:18.752Z,0.9
2018-03-08T15:04:18.620Z,1
2018-03-08T15:06:19.442Z,0.7
2018-03-08T15:08:19.371Z,1
2018-03-08T15:10:18.740Z,0.8
2018-03-08T15:12:18.623Z,0.7
2018-03-08T15:14:19.517Z,0.5
2018-03-08T15:16:19.279Z,1
2018-03-08T15:18:19.243Z,1.1
2018-03-08T15:20:19.130Z,0.8
2018-03-08T15:22:19.050Z,0.6
2018-03-08T15:24:18.971Z,0.9
2018-03-08T15:26:18.770Z,0.7
2018-03-08T15:28:18.688Z,0.6
2018-03-08T15:30:18.564Z,0.6
2018-03-08T15:32:19.433Z,0.4
2018-03-08T15:34:19.316Z,0.7
2018-03-08T15:36:19.163Z,0.9
2018-03-08T15:38:19.074Z,0.8
2018-03-08T15:40:19.444Z,0.9
2018-03-08T15:42:19.332Z,0.9
2018-03-08T15:44:19.251Z,0.7
2018-03-08T15:46:19.091Z,0.7
2018-03-08T15:48:18.975Z,1
2018-03-08T15:50:18.929Z,1
2018-03-08T15:52:18.794Z,0.8
2018-03-08T15:54:18.679Z,0.9
2018-03-08T15:56:19.516Z,1
2018-03-08T15:58:19.402Z,0.9
2018-03-08T16:00:19.317Z,1
2018-03-08T16:02:19.217Z,1.7
2018-03-08T16:04:19.099Z,1.2
2018-03-08T16:06:18.940Z,1.1
2018-03-08T16:08:18.834Z,1.4
2018-03-08T16:10:19.187Z,1.6
2018-03-08T16:12:19.063Z,1.2
2018-03-08T16:14:18.943Z,1.3
2018-03-08T16:16:19.237Z,1.4
2018-03-08T16:18:19.261Z,1.8
2018-03-08T16:20:19.230Z,2.1
2018-03-08T16:22:19.104Z,1.4
2018-03-08T16:24:19.003Z,1.8
2018-03-08T16:26:18.754Z,1.7
2018-03-08T16:28:18.636Z,1.9
2018-03-08T16:30:19.671Z,3.4
2018-03-08T16:32:18.535Z,2.7
2018-03-08T16:34:19.415Z,1.8
2018-03-08T16:36:19.245Z,1.3
2018-03-08T16:38:19.150Z,1.2
2018-03-08T16:40:19.501Z,1.9
2018-03-08T16:42:19.368Z,1.5
2018-03-08T16:44:19.273Z,1.4
2018-03-08T16:46:18.539Z,2
2018-03-08T16:48:19.418Z,1.6
2018-03-08T16:50:19.286Z,1.5
2018-03-08T16:52:19.173Z,2
2018-03-08T16:54:19.054Z,1.8
2018-03-08T16:56:19.004Z,1.5
2018-03-08T16:58:18.880Z,2
2018-03-08T17:00:18.792Z,2.4
2018-03-08T17:02:18.786Z,1.9
2018-03-08T17:04:18.645Z,2.4
2018-03-08T17:06:19.491Z,1.7
2018-03-08T17:08:19.363Z,2.3
2018-03-08T17:10:18.722Z,1.7
2018-03-08T17:12:18.632Z,1.6
2018-03-08T17:14:19.520Z,1.7
2018-03-08T17:16:18.899Z,2.1
2018-03-08T17:18:18.860Z,1.8
2018-03-08T17:20:18.739Z,1.8
2018-03-08T17:22:18.618Z,2
2018-03-08T17:24:19.511Z,2
2018-03-08T17:26:19.454Z,2.2
2018-03-08T17:28:19.411Z,1.8
2018-03-08T17:30:19.365Z,3.4
2018-03-08T17:32:19.265Z,1.8
2018-03-08T17:34:19.160Z,2.3
2018-03-08T17:36:19.439Z,2
2018-03-08T17:38:19.302Z,2
2018-03-08T17:40:18.662Z,2.3
2018-03-08T17:42:18.531Z,2.2
2018-03-08T17:44:19.408Z,2.3
2018-03-08T17:46:19.297Z,2.2
2018-03-08T17:48:19.147Z,3
2018-03-08T17:50:19.030Z,2.7
2018-03-08T17:52:18.878Z,2.5
2018-03-08T17:54:18.725Z,2.6
2018-03-08T17:56:19.233Z,2.1
2018-03-08T17:58:19.102Z,2.2
2018-03-08T18:00:18.942Z,2
2018-03-08T18:02:18.789Z,2.3
2018-03-08T18:04:18.640Z,2.4
2018-03-08T18:06:18.662Z,2.4
2018-03-08T18:08:19.510Z,2.2
2018-03-08T18:10:18.815Z,2.7
2018-03-08T18:12:18.663Z,2.5
2018-03-08T18:14:19.513Z,3.1
2018-03-08T18:16:18.791Z,3.3
2018-03-08T18:18:18.706Z,2.4
2018-03-08T18:20:18.595Z,2.2
2018-03-08T18:22:18.750Z,3.6
2018-03-08T18:24:18.588Z,2.7
2018-03-08T18:26:18.859Z,2.3
2018-03-08T18:28:18.699Z,2.1
2018-03-08T18:30:18.563Z,2.1
2018-03-08T18:32:19.399Z,2.2
2018-03-08T18:34:19.243Z,2.3
2018-03-08T18:36:18.933Z,2.1
2018-03-08T18:38:18.771Z,2
2018-03-08T18:40:19.063Z,2.6
2018-03-08T18:42:18.908Z,2.2
2018-03-08T18:44:18.757Z,2
2018-03-08T18:46:18.500Z,1.9
2018-03-08T18:48:19.337Z,1.7
2018-03-08T18:50:19.536Z,2.9
2018-03-08T18:52:19.425Z,2.3
2018-03-08T18:54:20.247Z,1.5
2018-03-08T18:56:19.457Z,2
2018-03-08T18:58:19.297Z,2.5
2018-03-08T19:00:19.188Z,1.9
2018-03-08T19:02:19.042Z,2
2018-03-08T19:04:18.878Z,1.6
2018-03-08T19:06:18.592Z,2.1
2018-03-08T19:08:19.434Z,1.9
2018-03-08T19:10:19.058Z,2.4
2018-03-08T19:12:19.181Z,2
2018-03-08T19:14:19.030Z,2.3
2018-03-08T19:16:19.266Z,2
2018-03-08T19:18:19.196Z,1.9
2018-03-08T19:20:19.068Z,2.1
2018-03-08T19:22:18.902Z,1.9
2018-03-08T19:24:18.756Z,1.9
2018-03-08T19:26:19.298Z,2
2018-03-08T19:28:19.149Z,1.5
2018-03-08T19:30:19.021Z,1.5
2018-03-08T19:32:18.939Z,1.4
2018-03-08T19:34:18.785Z,2
2018-03-08T19:36:19.042Z,1.6
2018-03-08T19:38:18.884Z,1.6
2018-03-08T19:40:19.723Z,1.2
2018-03-08T19:42:18.566Z,1.6
2018-03-08T19:44:19.446Z,2
2018-03-08T19:46:18.694Z,1
2018-03-08T19:48:18.602Z,1.3
2018-03-08T19:50:19.520Z,1.6
2018-03-08T19:52:19.371Z,1.4
2018-03-08T19:54:19.228Z,1.4
2018-03-08T19:56:19.462Z,0.9
2018-03-08T19:58:18.600Z,1.3
2018-03-08T20:00:19.452Z,1.7
2018-03-08T20:02:19.349Z,1.2
2018-03-08T20:04:19.333Z,1.2
2018-03-08T20:06:18.746Z,0.8
2018-03-08T20:08:18.590Z,1.4
2018-03-08T20:10:18.902Z,1.2
2018-03-08T20:12:18.733Z,1.8
2018-03-08T20:14:18.567Z,0.9
2018-03-08T20:16:19.360Z,1.1
2018-03-08T20:18:19.282Z,1.2
2018-03-08T20:20:19.138Z,0.9
2018-03-08T20:22:18.975Z,1.1
2018-03-08T20:24:18.803Z,1.3
2018-03-08T20:26:18.538Z,1
2018-03-08T20:28:19.416Z,1.5
2018-03-08T20:30:19.285Z,1.5
2018-03-08T20:32:19.128Z,1.1
2018-03-08T20:34:18.974Z,1.3
2018-03-08T20:36:18.843Z,1.2
2018-03-08T20:38:18.658Z,1.4
2018-03-08T20:40:18.962Z,1.1
2018-03-08T20:42:18.775Z,1.2
2018-03-08T20:44:18.640Z,1
2018-03-08T20:46:19.256Z,0.9
2018-03-08T20:48:19.070Z,0.8
2018-03-08T20:50:18.931Z,1.2
2018-03-08T20:52:18.737Z,1.5
2018-03-08T20:54:18.547Z,1.2
2018-03-08T20:56:18.733Z,1
2018-03-08T20:58:18.539Z,0.8
2018-03-08T21:00:19.382Z,0.9
2018-03-08T21:02:19.231Z,1.3
2018-03-08T21:04:19.071Z,1.1
2018-03-08T21:06:19.202Z,1
2018-03-08T21:08:19.260Z,1.2
2018-03-08T21:10:18.539Z,0.9
2018-03-08T21:12:19.348Z,0.8
2018-03-08T21:14:19.161Z,0.9
2018-03-08T21:16:19.288Z,1.4
2018-03-08T21:18:19.184Z,1
2018-03-08T21:20:19.022Z,1.8
2018-03-08T21:22:18.838Z,1.2
2018-03-08T21:24:18.625Z,1.6
2018-03-08T21:26:19.415Z,1.4
2018-03-08T21:28:19.219Z,1
2018-03-08T21:30:19.030Z,1.2
2018-03-08T21:32:18.814Z,1.3
2018-03-08T21:34:18.603Z,0.7
2018-03-08T21:36:19.099Z,1.2
2018-03-08T21:38:18.886Z,1.1
2018-03-08T21:40:19.087Z,1.2
2018-03-08T21:42:18.869Z,2.3
2018-03-08T21:44:18.647Z,1.2
2018-03-08T21:46:19.232Z,0.8
2018-03-08T21:48:19.007Z,1.3
2018-03-08T21:50:18.803Z,1.3
2018-03-08T21:52:18.570Z,1.6
2018-03-08T21:54:19.354Z,1.2
2018-03-08T21:56:18.835Z,1.2
2018-03-08T21:58:18.608Z,1.4
2018-03-08T22:00:19.682Z,1.3
2018-03-08T22:02:18.450Z,1.2
2018-03-08T22:04:19.222Z,1.5
2018-03-08T22:06:18.723Z,1
2018-03-08T22:08:18.498Z,1.2
2018-03-08T22:10:18.686Z,1.4
2018-03-08T22:12:18.464Z,1.5
2018-03-08T22:14:19.246Z,0.9
2018-03-08T22:16:18.729Z,0.9
2018-03-08T22:18:18.569Z,1.1
2018-03-08T22:20:19.373Z,1.3
2018-03-08T22:22:20.137Z,1.5
2018-03-08T22:24:18.916Z,1.4
2018-03-08T22:26:19.020Z,1.8
2018-03-08T22:28:18.794Z,2
2018-03-08T22:30:18.603Z,1.8
2018-03-08T22:32:20.367Z,2.1
2018-03-08T22:34:19.148Z,1
2018-03-08T22:36:19.226Z,1.1
2018-03-08T22:38:18.999Z,1.2
2018-03-08T22:40:19.185Z,1.1
2018-03-08T22:42:18.977Z,1
2018-03-08T22:44:18.750Z,1
2018-03-08T22:46:18.767Z,0.6
2018-03-08T22:48:18.550Z,0.7
2018-03-08T22:50:19.345Z,0.6
2018-03-08T22:52:19.107Z,0.3
2018-03-08T22:54:18.873Z,0.4
2018-03-08T22:56:19.353Z,0.8
2018-03-08T22:58:19.141Z,0.6
2018-03-08T23:00:18.923Z,0.3
2018-03-08T23:02:18.687Z,0.4
2018-03-08T23:04:18.448Z,0.5
2018-03-08T23:06:18.948Z,0.5
2018-03-08T23:08:18.722Z,0.5
2018-03-08T23:10:18.910Z,0.4
2018-03-08T23:12:18.681Z,0.6
2018-03-08T23:14:18.461Z,0.4
2018-03-08T23:16:18.916Z,0.6
2018-03-08T23:18:18.738Z,0.4
2018-03-08T23:20:18.524Z,0.2
2018-03-08T23:22:19.297Z,0.3
2018-03-08T23:24:19.090Z,0.3
2018-03-08T23:26:19.111Z,0.3
2018-03-08T23:28:18.872Z,0.4
2018-03-08T23:30:18.660Z,0.4
2018-03-08T23:32:19.425Z,0.4
2018-03-08T23:34:19.192Z,0.6
2018-03-08T23:36:18.711Z,0.6
2018-03-08T23:38:18.476Z,0.3
2018-03-08T23:40:18.703Z,0.3
2018-03-08T23:42:18.480Z,0.4
2018-03-08T23:44:19.251Z,1.3
2018-03-08T23:46:18.731Z,0.4
2018-03-08T23:48:18.494Z,0.6
2018-03-08T23:50:19.287Z,0.9
2018-03-08T23:52:19.046Z,0.4
2018-03-08T23:54:18.818Z,0.4
2018-03-08T23:56:19.370Z,0.3
2018-03-08T23:58:19.146Z,0.4
